Terminal Aerodrome Forecast
Issued by NWS

Home | Current Version | Previous Version | Text Only | Print | Product List | Glossary On
Versions: 1 2 3 4 5 6 7 8 9 10 11 12 13
000
FTUS42 TJSJ 230541
TAFJBQ
TAF
TJBQ 230541Z 2306/2406 14005KT P6SM VCSH SCT040 SCT090
     FM231400 08010KT P6SM FEW025 SCT050
     FM231700 05010KT P6SM SHRA SCT025 BKN040
     FM232300 10005KT P6SM VCSH SCT030 BKN050
      AMD NOT SKED TIL 231100=

USA.gov is the U.S. government's official web portal to all federal, state and local government web resources and services.